createdAt,value
2022-12-09T06:31:19.082Z,-1.60
2022-12-09T06:33:55.829Z,-1.40
2022-12-09T06:36:25.061Z,-1.60
2022-12-09T06:38:52.725Z,-1.50
2022-12-09T06:41:20.092Z,-1.50
2022-12-09T06:43:47.713Z,-1.60
2022-12-09T06:46:18.719Z,-1.70
2022-12-09T06:48:46.999Z,-1.70
2022-12-09T06:51:15.570Z,-1.80
2022-12-09T06:53:43.593Z,-1.90
2022-12-09T06:56:13.542Z,-2.00
2022-12-09T06:58:43.081Z,-2.20
2022-12-09T07:01:16.482Z,-2.20
2022-12-09T07:03:46.752Z,-2.30
2022-12-09T07:09:04.785Z,-2.40
2022-12-09T07:11:33.683Z,-2.60
2022-12-09T07:14:02.928Z,-2.60
2022-12-09T07:16:31.884Z,-2.60
2022-12-09T07:19:00.240Z,-2.60
2022-12-09T07:21:30.997Z,-1.70
2022-12-09T07:24:01.425Z,-2.50
2022-12-09T07:26:33.701Z,-2.40
2022-12-09T07:29:03.823Z,-2.40
2022-12-09T07:31:32.942Z,-2.30
2022-12-09T07:34:02.452Z,-2.20
2022-12-09T07:36:32.924Z,-2.10
2022-12-09T07:39:04.672Z,-2.00
2022-12-09T07:41:32.433Z,-2.00
2022-12-09T07:44:00.682Z,-2.10
2022-12-09T07:46:30.816Z,-2.00
2022-12-09T07:48:58.672Z,-2.00
2022-12-09T07:51:29.622Z,-2.00
2022-12-09T07:53:57.902Z,-1.90
2022-12-09T07:56:26.161Z,-1.80
2022-12-09T07:58:54.595Z,-1.80
2022-12-09T08:01:25.319Z,-1.70
2022-12-09T08:03:53.414Z,-1.70
2022-12-09T08:06:27.232Z,-1.60
2022-12-09T08:08:59.820Z,-1.60
2022-12-09T08:11:30.175Z,-1.40
2022-12-09T08:14:04.362Z,-1.50
2022-12-09T08:16:35.143Z,-1.50
2022-12-09T08:19:03.494Z,-1.40
2022-12-09T08:21:32.929Z,-1.20
2022-12-09T08:24:05.931Z,-1.10
2022-12-09T08:26:35.229Z,-1.00
2022-12-09T08:29:07.383Z,-0.80
2022-12-09T08:31:40.654Z,-0.50
2022-12-09T08:34:09.997Z,-0.30
2022-12-09T08:36:39.255Z,-0.10
2022-12-09T08:39:07.151Z,0.10
2022-12-09T08:41:38.177Z,0.50
2022-12-09T08:44:17.438Z,0.70
2022-12-09T08:46:48.399Z,0.80
2022-12-09T08:49:19.050Z,0.80
2022-12-09T08:51:49.199Z,1.00
2022-12-09T08:54:22.414Z,0.90
2022-12-09T08:56:56.249Z,0.90
2022-12-09T08:59:24.531Z,0.90
2022-12-09T09:01:52.585Z,1.00
2022-12-09T09:04:22.924Z,1.60
2022-12-09T09:06:52.479Z,1.20
2022-12-09T09:09:22.196Z,1.20
2022-12-09T09:11:50.328Z,1.10
2022-12-09T09:14:18.279Z,0.00
2022-12-09T09:16:46.460Z,0.80
2022-12-09T09:19:17.627Z,0.80
2022-12-09T09:21:45.772Z,0.70
2022-12-09T09:24:16.914Z,0.50
2022-12-09T09:26:53.159Z,0.60
2022-12-09T09:29:23.027Z,0.80
2022-12-09T09:31:56.216Z,1.50
2022-12-09T09:34:28.053Z,1.80
2022-12-09T09:36:57.633Z,1.40
2022-12-09T09:39:25.910Z,1.50
2022-12-09T09:44:54.221Z,0.90
2022-12-09T09:47:38.230Z,0.80
2022-12-09T09:52:52.588Z,0.80
2022-12-09T09:55:31.100Z,0.80
2022-12-09T09:58:16.326Z,1.10
2022-12-09T10:01:02.484Z,1.50
2022-12-09T10:03:58.922Z,1.40
2022-12-09T10:06:45.608Z,1.90
2022-12-09T10:09:31.159Z,1.50
2022-12-09T10:12:09.702Z,1.70
2022-12-09T10:15:15.013Z,1.30
2022-12-09T10:17:50.944Z,1.70
2022-12-09T10:20:31.346Z,1.70
2022-12-09T10:23:04.094Z,1.60
2022-12-09T10:25:35.459Z,1.70
2022-12-09T10:28:24.707Z,1.80
2022-12-09T10:30:54.691Z,1.80
2022-12-09T10:33:29.565Z,1.90
2022-12-09T10:35:57.631Z,2.10
2022-12-09T10:38:30.310Z,2.20
2022-12-09T10:41:50.729Z,1.80
2022-12-09T10:44:23.148Z,1.50
2022-12-09T10:47:23.934Z,2.00
2022-12-09T10:49:54.387Z,2.00
2022-12-09T10:52:25.764Z,1.70
2022-12-09T10:54:54.408Z,1.70
2022-12-09T10:57:27.437Z,1.70
2022-12-09T11:00:02.021Z,1.70
2022-12-09T11:02:32.851Z,1.70
2022-12-09T11:05:28.802Z,1.90
2022-12-09T11:07:58.627Z,2.10
2022-12-09T11:10:29.618Z,2.00
2022-12-09T11:13:06.554Z,2.30
2022-12-09T11:15:59.487Z,1.80
2022-12-09T11:18:33.041Z,1.90
2022-12-09T11:21:03.993Z,2.00
2022-12-09T11:23:31.776Z,1.70
2022-12-09T11:26:04.696Z,1.70
2022-12-09T11:28:35.110Z,1.60
2022-12-09T11:33:58.117Z,1.50
2022-12-09T11:36:32.634Z,1.60
2022-12-09T11:39:29.084Z,1.70
2022-12-09T11:42:19.849Z,1.70
2022-12-09T11:45:06.631Z,1.60
2022-12-09T11:48:13.895Z,1.50
2022-12-09T11:50:32.380Z,2.00
2022-12-09T11:53:27.043Z,1.80
2022-12-09T11:56:00.810Z,1.90
2022-12-09T11:58:39.109Z,2.00
2022-12-09T12:01:18.017Z,2.00
2022-12-09T12:03:52.015Z,2.10
2022-12-09T12:06:25.158Z,2.20
2022-12-09T12:09:18.428Z,2.30
2022-12-09T12:12:05.431Z,2.40
2022-12-09T12:14:43.171Z,2.80
2022-12-09T12:17:33.952Z,2.70
2022-12-09T12:20:02.492Z,2.80
2022-12-09T12:22:57.821Z,2.70
2022-12-09T12:28:40.801Z,4.90
2022-12-09T12:31:37.095Z,2.40
2022-12-09T12:34:37.293Z,2.40
2022-12-09T12:37:30.409Z,2.30
2022-12-09T12:40:37.455Z,2.40
2022-12-09T12:43:41.362Z,2.40
2022-12-09T12:46:41.519Z,2.20
2022-12-09T12:52:21.089Z,2.10
2022-12-09T12:55:24.627Z,1.90
2022-12-09T12:58:06.134Z,1.60
2022-12-09T13:00:45.336Z,1.60
2022-12-09T13:06:14.222Z,1.60
2022-12-09T13:08:48.646Z,1.60
2022-12-09T13:11:22.418Z,1.50
2022-12-09T13:13:55.825Z,1.50
2022-12-09T13:16:36.216Z,1.40
2022-12-09T13:19:26.615Z,1.40
2022-12-09T13:21:54.292Z,1.30
2022-12-09T13:27:13.248Z,1.30
2022-12-09T13:29:52.150Z,1.40
2022-12-09T13:32:37.358Z,1.40
2022-12-09T13:35:14.039Z,0.10
2022-12-09T13:45:47.779Z,1.00
2022-12-09T13:50:59.684Z,1.00
2022-12-09T13:53:40.116Z,1.20
2022-12-09T13:56:24.569Z,1.30
2022-12-09T13:59:15.902Z,1.30
2022-12-09T14:01:52.003Z,1.40
2022-12-09T14:04:30.957Z,1.40
2022-12-09T14:07:28.311Z,1.50
2022-12-09T14:09:57.645Z,1.60
2022-12-09T14:18:04.685Z,1.60
2022-12-09T14:20:36.647Z,1.70
2022-12-09T14:23:13.331Z,1.70
2022-12-09T14:25:56.804Z,1.70
2022-12-09T14:28:36.868Z,1.70
2022-12-09T14:31:08.616Z,1.70
2022-12-09T14:33:42.606Z,1.70
2022-12-09T14:36:26.895Z,1.70
2022-12-09T14:39:24.231Z,1.70
2022-12-09T14:42:01.784Z,1.70
2022-12-09T14:44:48.447Z,1.70
2022-12-09T14:47:33.507Z,1.70
2022-12-09T14:50:09.129Z,1.50
2022-12-09T14:52:36.798Z,1.60
2022-12-09T14:55:09.179Z,1.30
2022-12-09T14:57:42.392Z,1.50
2022-12-09T15:00:39.165Z,1.50
2022-12-09T15:03:39.505Z,1.20
2022-12-09T15:06:12.242Z,1.30
2022-12-09T15:08:41.126Z,1.40
2022-12-09T15:11:21.470Z,1.30
2022-12-09T15:13:51.791Z,1.40
2022-12-09T15:16:22.602Z,1.40
2022-12-09T15:18:51.502Z,1.30
2022-12-09T15:21:27.238Z,1.30
2022-12-09T15:23:54.894Z,1.40
2022-12-09T15:26:33.274Z,1.30
2022-12-09T15:29:01.289Z,1.30
2022-12-09T15:31:31.019Z,1.20
2022-12-09T15:34:07.824Z,1.20
2022-12-09T15:36:39.709Z,1.10
2022-12-09T15:39:11.737Z,1.50
2022-12-09T15:42:03.300Z,1.10
2022-12-09T15:44:49.812Z,1.10
2022-12-09T15:50:22.744Z,1.00
2022-12-09T15:55:51.280Z,1.30
2022-12-09T15:58:23.161Z,1.30
2022-12-09T16:00:52.093Z,1.40
2022-12-09T16:03:24.127Z,1.40
2022-12-09T16:05:55.270Z,1.40
2022-12-09T16:08:23.487Z,1.40
2022-12-09T16:10:53.209Z,1.40
2022-12-09T16:13:21.334Z,1.40
2022-12-09T16:15:52.522Z,1.30
2022-12-09T16:18:24.911Z,1.30
2022-12-09T16:21:18.000Z,1.30
2022-12-09T16:23:48.733Z,1.20
2022-12-09T16:26:27.084Z,1.20
2022-12-09T16:28:58.586Z,1.10
2022-12-09T16:31:26.103Z,1.30
2022-12-09T16:33:54.140Z,1.30
2022-12-09T16:36:26.461Z,1.30
2022-12-09T16:41:58.823Z,1.40
2022-12-09T16:44:33.029Z,1.30
2022-12-09T16:47:16.122Z,1.30
2022-12-09T16:49:47.032Z,1.20
2022-12-09T16:52:20.500Z,1.30
2022-12-09T16:54:49.439Z,1.20
2022-12-09T16:57:18.606Z,1.20
2022-12-09T16:59:46.574Z,1.30
